createdAt,value
2023-03-31T00:00:38.716Z,15.93
2023-03-31T00:03:11.143Z,13.07
2023-03-31T00:05:48.245Z,13.68
2023-03-31T00:08:21.459Z,14.57
2023-03-31T00:10:53.828Z,18.98
2023-03-31T00:13:26.413Z,22.05
2023-03-31T00:16:04.947Z,15.02
2023-03-31T00:18:37.937Z,12.25
2023-03-31T00:21:25.093Z,13.90
2023-03-31T00:24:09.922Z,14.23
2023-03-31T00:26:42.491Z,16.42
2023-03-31T00:29:15.117Z,13.40
2023-03-31T00:31:47.200Z,18.00
2023-03-31T00:34:19.285Z,13.23
2023-03-31T00:36:51.421Z,17.00
2023-03-31T00:39:31.952Z,17.98
2023-03-31T00:42:05.077Z,20.50
2023-03-31T00:45:00.071Z,19.80
2023-03-31T00:47:32.225Z,13.55
2023-03-31T00:50:04.525Z,16.42
2023-03-31T00:52:37.788Z,19.83
2023-03-31T00:55:18.331Z,16.65
2023-03-31T00:57:53.794Z,19.95
2023-03-31T01:00:26.065Z,13.50
2023-03-31T01:03:03.685Z,16.92
2023-03-31T01:06:07.365Z,15.27
2023-03-31T01:11:16.650Z,18.50
2023-03-31T01:13:51.131Z,19.42
2023-03-31T01:16:23.210Z,17.15
2023-03-31T01:18:57.740Z,20.67
2023-03-31T01:22:15.302Z,20.08
2023-03-31T01:25:11.517Z,14.13
2023-03-31T01:28:15.575Z,17.48
2023-03-31T01:31:06.279Z,12.98
2023-03-31T01:34:00.410Z,18.38
2023-03-31T01:36:57.945Z,10.88
2023-03-31T01:39:48.342Z,16.80
2023-03-31T01:42:53.490Z,14.48
2023-03-31T01:45:40.466Z,17.07
2023-03-31T01:48:20.604Z,15.25
2023-03-31T01:50:57.378Z,17.27
2023-03-31T01:53:38.358Z,17.00
2023-03-31T01:56:17.915Z,14.05
2023-03-31T01:58:58.160Z,16.15
2023-03-31T02:01:38.388Z,18.55
2023-03-31T02:04:15.064Z,19.40
2023-03-31T02:06:53.731Z,15.18
2023-03-31T02:09:36.917Z,16.20
2023-03-31T02:12:12.004Z,20.05
2023-03-31T02:14:47.752Z,16.98
2023-03-31T02:17:30.518Z,16.45
2023-03-31T02:20:13.297Z,13.00
2023-03-31T02:22:50.168Z,17.58
2023-03-31T02:25:32.681Z,17.15
2023-03-31T02:28:10.852Z,14.32
2023-03-31T02:30:58.152Z,18.25
2023-03-31T02:33:30.312Z,16.13
2023-03-31T02:36:03.689Z,14.35
2023-03-31T02:38:45.182Z,16.65
2023-03-31T02:41:17.344Z,19.65
2023-03-31T02:43:49.443Z,18.65
2023-03-31T02:46:22.368Z,16.48
2023-03-31T02:48:58.312Z,18.15
2023-03-31T02:52:21.441Z,14.20
2023-03-31T02:55:17.024Z,15.40
2023-03-31T02:58:01.422Z,14.65
2023-03-31T03:00:44.942Z,17.83
2023-03-31T03:03:29.580Z,18.42
2023-03-31T03:06:18.784Z,17.05
2023-03-31T03:09:17.318Z,14.35
2023-03-31T03:12:04.643Z,15.82
2023-03-31T03:15:06.051Z,14.85
2023-03-31T03:17:50.221Z,14.85
2023-03-31T03:20:22.816Z,14.63
2023-03-31T03:22:54.971Z,18.67
2023-03-31T03:25:27.065Z,15.82
2023-03-31T03:27:59.247Z,20.42
2023-03-31T03:30:31.293Z,13.90
2023-03-31T03:33:06.442Z,20.88
2023-03-31T03:35:38.654Z,24.23
2023-03-31T03:38:10.900Z,18.10
2023-03-31T03:40:42.952Z,17.05
2023-03-31T03:43:15.010Z,22.75
2023-03-31T03:45:51.223Z,17.02
2023-03-31T03:48:23.301Z,21.60
2023-03-31T03:50:55.779Z,16.02
2023-03-31T03:53:28.406Z,17.92
2023-03-31T03:56:01.741Z,23.08
2023-03-31T03:58:33.809Z,21.23
2023-03-31T04:01:06.165Z,18.25
2023-03-31T04:03:38.241Z,22.27
2023-03-31T04:06:10.721Z,23.45
2023-03-31T04:08:42.747Z,21.30
2023-03-31T04:11:19.087Z,22.40
2023-03-31T04:13:52.039Z,27.13
2023-03-31T04:16:25.622Z,23.13
2023-03-31T04:21:35.114Z,17.88
2023-03-31T04:24:07.546Z,26.33
2023-03-31T04:26:43.338Z,23.67
2023-03-31T04:29:16.785Z,24.27
2023-03-31T04:31:50.903Z,21.42
2023-03-31T04:34:26.837Z,27.15
2023-03-31T04:37:03.001Z,21.65
2023-03-31T04:39:35.575Z,23.55
2023-03-31T04:42:07.754Z,24.58
2023-03-31T04:44:39.868Z,26.08
2023-03-31T04:47:11.967Z,22.67
2023-03-31T04:49:44.045Z,28.73
2023-03-31T04:52:16.467Z,18.15
2023-03-31T04:54:48.736Z,24.30
2023-03-31T04:57:21.636Z,25.92
2023-03-31T04:59:53.768Z,23.75
2023-03-31T05:02:26.344Z,22.80
2023-03-31T05:04:59.023Z,26.88
2023-03-31T05:07:32.042Z,21.37
2023-03-31T05:10:05.269Z,26.95
2023-03-31T05:12:38.317Z,29.65
2023-03-31T05:15:10.932Z,27.48
2023-03-31T05:17:43.960Z,29.00
2023-03-31T05:20:16.577Z,20.67
2023-03-31T05:22:48.956Z,25.63
2023-03-31T05:25:21.112Z,25.80
2023-03-31T05:27:53.479Z,22.98
2023-03-31T05:30:29.260Z,25.35
2023-03-31T05:33:08.104Z,28.63
2023-03-31T05:35:40.532Z,21.00
2023-03-31T05:38:12.700Z,22.05
2023-03-31T05:40:44.863Z,22.55
2023-03-31T05:43:17.033Z,25.10
2023-03-31T05:45:50.040Z,24.17
2023-03-31T05:48:22.375Z,22.20
2023-03-31T05:50:59.348Z,24.40
2023-03-31T05:53:31.804Z,23.52
2023-03-31T05:56:07.323Z,33.30
2023-03-31T05:58:39.688Z,23.02
2023-03-31T06:01:19.790Z,35.42
2023-03-31T06:03:52.146Z,25.33
2023-03-31T06:06:25.675Z,23.88
2023-03-31T06:08:58.727Z,20.25
2023-03-31T06:11:31.105Z,21.35
2023-03-31T06:14:03.872Z,21.58
2023-03-31T06:16:36.198Z,22.23
2023-03-31T06:19:09.104Z,20.60
2023-03-31T06:21:41.344Z,18.98
2023-03-31T06:24:13.929Z,18.25
2023-03-31T06:26:46.060Z,17.77
2023-03-31T06:29:18.514Z,21.90
2023-03-31T06:31:50.742Z,19.52
2023-03-31T06:34:22.856Z,17.88
2023-03-31T06:36:55.402Z,21.90
2023-03-31T06:39:28.250Z,17.13
2023-03-31T06:42:00.410Z,19.60
2023-03-31T06:44:33.937Z,21.98
2023-03-31T06:47:06.131Z,23.67
2023-03-31T06:49:38.342Z,18.00
2023-03-31T06:52:15.010Z,18.13
2023-03-31T06:54:47.145Z,17.27
2023-03-31T06:57:21.038Z,15.50
2023-03-31T06:59:56.085Z,18.65
2023-03-31T07:02:31.430Z,24.65
2023-03-31T07:05:03.786Z,17.77
2023-03-31T07:07:35.978Z,18.10
2023-03-31T07:10:08.834Z,14.85
2023-03-31T07:12:41.102Z,19.10
2023-03-31T07:15:13.516Z,15.85
2023-03-31T07:17:46.021Z,17.20
2023-03-31T07:20:19.858Z,17.67
2023-03-31T07:22:51.947Z,15.80
2023-03-31T07:25:24.494Z,17.15
2023-03-31T07:27:56.651Z,21.00
2023-03-31T07:30:29.114Z,19.02
2023-03-31T07:33:02.629Z,25.40
2023-03-31T07:38:11.204Z,20.05
2023-03-31T07:40:46.209Z,26.77
2023-03-31T07:43:19.801Z,22.80
2023-03-31T07:45:52.310Z,35.42
2023-03-31T07:48:24.368Z,39.38
2023-03-31T07:50:57.104Z,24.45
2023-03-31T07:53:36.603Z,23.88
2023-03-31T07:56:08.933Z,23.40
2023-03-31T07:58:41.175Z,24.52
2023-03-31T08:01:18.014Z,27.08
2023-03-31T08:03:50.165Z,26.30
2023-03-31T08:06:24.510Z,31.27
2023-03-31T08:08:58.091Z,27.13
2023-03-31T08:14:02.381Z,26.35
2023-03-31T08:16:34.521Z,28.23
2023-03-31T08:19:06.894Z,27.33
2023-03-31T08:21:39.136Z,20.95
2023-03-31T08:24:11.246Z,29.42
2023-03-31T08:26:43.338Z,23.92
2023-03-31T08:29:16.443Z,21.05
2023-03-31T08:31:48.745Z,20.85
2023-03-31T08:34:21.244Z,27.17
2023-03-31T08:36:53.939Z,23.48
2023-03-31T08:39:27.384Z,19.38
2023-03-31T08:42:14.589Z,19.90
2023-03-31T08:45:01.676Z,20.42
2023-03-31T08:47:36.845Z,20.63
2023-03-31T08:50:15.539Z,15.52
2023-03-31T08:53:10.891Z,19.83
2023-03-31T08:55:57.277Z,19.73
2023-03-31T08:58:44.690Z,20.88
2023-03-31T09:01:52.098Z,24.38
2023-03-31T09:04:33.139Z,21.45
2023-03-31T09:07:16.044Z,23.55
2023-03-31T09:10:23.524Z,24.10
2023-03-31T09:13:14.426Z,18.13
2023-03-31T09:16:04.349Z,16.15
2023-03-31T09:18:39.051Z,13.57
2023-03-31T09:21:27.776Z,11.18
2023-03-31T09:24:11.780Z,12.43
2023-03-31T09:26:49.265Z,15.52
2023-03-31T09:29:33.086Z,11.35
2023-03-31T09:32:23.693Z,10.02
2023-03-31T09:35:22.212Z,11.82
2023-03-31T09:37:55.056Z,12.07
2023-03-31T09:40:31.922Z,11.73
2023-03-31T09:43:15.712Z,11.25
2023-03-31T09:46:05.323Z,11.30
2023-03-31T09:48:42.627Z,8.70
2023-03-31T09:51:26.104Z,12.32
2023-03-31T09:54:03.088Z,8.93
2023-03-31T09:56:46.401Z,11.88
2023-03-31T09:59:21.139Z,11.98
2023-03-31T10:01:59.125Z,11.80
2023-03-31T10:04:35.063Z,12.00
2023-03-31T10:07:08.553Z,9.23
2023-03-31T10:12:20.450Z,10.88
2023-03-31T10:14:55.039Z,12.63
2023-03-31T10:17:29.104Z,10.38
2023-03-31T10:20:18.798Z,9.02
2023-03-31T10:22:51.434Z,10.70
2023-03-31T10:25:28.607Z,9.60
2023-03-31T10:28:03.043Z,7.05
2023-03-31T10:30:38.281Z,6.18
2023-03-31T10:35:58.413Z,7.88
2023-03-31T10:38:35.709Z,12.27
2023-03-31T10:41:08.562Z,6.70
2023-03-31T10:43:50.554Z,16.67
2023-03-31T10:46:46.372Z,8.63
2023-03-31T10:49:21.471Z,7.43
2023-03-31T10:51:56.474Z,12.65
2023-03-31T10:54:28.568Z,10.05
2023-03-31T10:57:06.379Z,10.55
2023-03-31T10:59:59.998Z,9.50
2023-03-31T11:02:44.094Z,11.82
2023-03-31T11:05:22.623Z,12.05
2023-03-31T11:08:13.498Z,8.75
2023-03-31T11:10:55.215Z,9.27
2023-03-31T11:13:34.745Z,9.85
2023-03-31T11:16:22.098Z,8.85
2023-03-31T11:19:16.441Z,10.45
2023-03-31T11:22:32.207Z,14.38
2023-03-31T11:25:41.726Z,9.52
2023-03-31T11:28:44.253Z,13.50
2023-03-31T11:31:47.838Z,10.20
2023-03-31T11:34:23.002Z,17.98
2023-03-31T11:37:07.996Z,11.43
2023-03-31T11:39:47.366Z,9.60
2023-03-31T11:42:48.938Z,7.53
2023-03-31T11:45:38.082Z,8.10
2023-03-31T11:48:26.739Z,5.50
2023-03-31T11:51:01.594Z,3.80
2023-03-31T11:53:39.957Z,3.22
2023-03-31T11:56:13.671Z,3.17
2023-03-31T11:58:52.932Z,3.88
2023-03-31T12:01:46.570Z,2.95
2023-03-31T12:04:39.076Z,2.55
2023-03-31T12:07:32.435Z,3.00
2023-03-31T12:10:18.058Z,7.93
2023-03-31T12:13:08.173Z,3.13
2023-03-31T12:15:44.968Z,5.82
2023-03-31T12:18:23.041Z,5.07
2023-03-31T12:21:02.776Z,5.07
2023-03-31T12:23:44.747Z,1.92
2023-03-31T12:27:12.843Z,6.15
2023-03-31T12:30:10.933Z,4.35
2023-03-31T12:33:01.188Z,3.75
2023-03-31T12:35:58.349Z,10.18
2023-03-31T12:38:49.035Z,3.83
2023-03-31T12:41:36.026Z,5.82
2023-03-31T12:44:22.722Z,5.72
2023-03-31T12:47:10.093Z,6.90
2023-03-31T12:50:11.144Z,9.75
2023-03-31T12:52:58.834Z,7.07
2023-03-31T12:55:37.852Z,7.07
2023-03-31T12:58:26.724Z,6.35
2023-03-31T13:01:05.936Z,10.32
2023-03-31T13:03:55.250Z,7.72
2023-03-31T13:06:30.164Z,7.93
2023-03-31T13:09:08.709Z,6.25
2023-03-31T13:11:44.919Z,5.53
2023-03-31T13:14:42.550Z,5.53
2023-03-31T13:17:24.395Z,3.53
2023-03-31T13:20:16.766Z,6.38
2023-03-31T13:22:49.463Z,4.38
2023-03-31T13:25:30.655Z,4.82
2023-03-31T13:28:18.371Z,3.67
2023-03-31T13:30:53.699Z,3.72
2023-03-31T13:33:34.209Z,4.63
2023-03-31T13:36:30.706Z,3.92
2023-03-31T13:39:40.448Z,3.50
2023-03-31T13:42:24.659Z,3.67
2023-03-31T13:45:22.113Z,6.25
2023-03-31T13:48:16.153Z,2.67
2023-03-31T13:51:05.709Z,11.40
2023-03-31T13:53:42.120Z,3.13
2023-03-31T13:56:34.209Z,3.17
2023-03-31T13:59:26.146Z,1.65
2023-03-31T14:02:23.196Z,3.15
2023-03-31T14:05:01.538Z,2.90
2023-03-31T14:07:46.612Z,5.25
2023-03-31T14:10:37.042Z,6.63
2023-03-31T14:13:10.711Z,8.18
2023-03-31T14:15:53.509Z,3.20
2023-03-31T14:18:31.861Z,3.00
2023-03-31T14:21:14.465Z,8.20
2023-03-31T14:24:22.140Z,5.75
2023-03-31T14:27:21.879Z,2.85
2023-03-31T14:30:23.925Z,7.25
2023-03-31T14:33:15.841Z,4.25
2023-03-31T14:36:16.672Z,5.13
2023-03-31T14:38:49.220Z,7.03
2023-03-31T14:41:30.003Z,3.22
2023-03-31T14:44:05.324Z,8.90
2023-03-31T14:46:39.380Z,5.28
2023-03-31T14:49:29.207Z,4.18
2023-03-31T14:52:06.800Z,1.35
2023-03-31T14:54:39.053Z,6.93
2023-03-31T14:57:12.842Z,3.88
2023-03-31T14:59:47.710Z,7.85
2023-03-31T15:02:42.723Z,2.92
2023-03-31T15:05:37.575Z,2.20
2023-03-31T15:08:18.181Z,1.52
2023-03-31T15:11:13.150Z,5.97
2023-03-31T15:14:04.922Z,3.65
2023-03-31T15:16:42.748Z,5.97
2023-03-31T15:19:29.074Z,3.08
2023-03-31T15:22:16.622Z,1.67
2023-03-31T15:24:48.901Z,4.55
2023-03-31T15:30:25.592Z,2.58
2023-03-31T15:33:07.476Z,1.77
2023-03-31T15:35:50.343Z,1.90
2023-03-31T15:38:27.909Z,3.95
2023-03-31T15:41:00.976Z,1.85
2023-03-31T15:43:46.641Z,1.88
2023-03-31T15:46:45.963Z,5.18
2023-03-31T15:49:24.058Z,2.72
2023-03-31T15:51:57.636Z,3.17
2023-03-31T15:54:41.740Z,3.25
2023-03-31T15:57:19.555Z,6.55
2023-03-31T15:59:57.024Z,7.32
2023-03-31T16:02:43.133Z,3.03
2023-03-31T16:05:53.233Z,5.47
2023-03-31T16:08:27.012Z,4.10
2023-03-31T16:11:14.469Z,4.93
2023-03-31T16:13:52.184Z,4.78
2023-03-31T16:16:27.409Z,3.38
2023-03-31T16:19:10.346Z,2.67
2023-03-31T16:21:47.884Z,6.22
2023-03-31T16:24:22.057Z,6.20
2023-03-31T16:27:06.441Z,6.07
2023-03-31T16:29:39.045Z,4.60
2023-03-31T16:32:17.638Z,2.78
2023-03-31T16:35:01.742Z,4.68
2023-03-31T16:37:34.881Z,4.50
2023-03-31T16:40:07.915Z,5.63
2023-03-31T16:42:40.014Z,3.67
2023-03-31T16:45:16.744Z,5.65
2023-03-31T16:47:49.247Z,8.05
2023-03-31T16:50:21.424Z,4.32
2023-03-31T16:52:53.486Z,4.45
2023-03-31T16:55:26.449Z,3.78
2023-03-31T16:58:03.932Z,4.57
2023-03-31T17:00:36.935Z,4.50
2023-03-31T17:03:10.531Z,6.35
2023-03-31T17:08:17.025Z,2.78
2023-03-31T17:11:07.495Z,2.35
2023-03-31T17:13:41.938Z,2.30
2023-03-31T17:19:06.706Z,3.95
2023-03-31T17:21:38.899Z,4.28
2023-03-31T17:24:11.554Z,4.32
2023-03-31T17:26:43.734Z,4.95
2023-03-31T17:29:16.768Z,4.38
2023-03-31T17:31:49.353Z,2.75
2023-03-31T17:34:22.270Z,2.63
2023-03-31T17:36:55.831Z,3.10
2023-03-31T17:39:28.220Z,4.05
2023-03-31T17:42:00.904Z,3.13
2023-03-31T17:44:33.563Z,1.20
2023-03-31T17:47:07.197Z,2.92
2023-03-31T17:49:39.479Z,2.63
2023-03-31T17:52:11.874Z,5.97
2023-03-31T17:54:44.769Z,2.70
2023-03-31T17:57:17.423Z,1.77
2023-03-31T17:59:49.813Z,1.65
2023-03-31T18:02:21.943Z,3.22
2023-03-31T18:04:54.887Z,2.28
2023-03-31T18:07:27.441Z,1.92
2023-03-31T18:10:05.503Z,1.98
2023-03-31T18:15:31.252Z,3.58
2023-03-31T18:18:04.401Z,1.65
2023-03-31T18:20:36.757Z,3.17
2023-03-31T18:23:08.965Z,2.97
2023-03-31T18:25:45.429Z,2.72
2023-03-31T18:28:18.128Z,4.78
2023-03-31T18:30:50.239Z,5.68
2023-03-31T18:33:22.483Z,4.90
2023-03-31T18:35:57.483Z,2.15
2023-03-31T18:38:29.591Z,2.97
2023-03-31T18:41:02.730Z,4.22
2023-03-31T18:43:34.855Z,3.50
2023-03-31T18:46:07.878Z,6.77
2023-03-31T18:48:42.471Z,1.63
2023-03-31T18:51:15.109Z,2.25
2023-03-31T18:53:47.288Z,3.23
2023-03-31T18:56:19.846Z,2.72
2023-03-31T18:58:52.021Z,1.75
2023-03-31T19:01:24.509Z,2.47
2023-03-31T19:04:02.765Z,4.90
2023-03-31T19:06:35.319Z,2.10
2023-03-31T19:09:08.285Z,1.45
2023-03-31T19:11:40.437Z,3.17
2023-03-31T19:14:12.544Z,1.27
2023-03-31T19:16:45.226Z,0.95
2023-03-31T19:19:17.751Z,2.10
2023-03-31T19:21:50.930Z,2.28
2023-03-31T19:24:24.329Z,3.00
2023-03-31T19:26:57.733Z,3.25
2023-03-31T19:29:31.975Z,2.78
2023-03-31T19:32:04.613Z,1.83
2023-03-31T19:34:36.987Z,3.17
2023-03-31T19:37:12.396Z,2.22
2023-03-31T19:39:44.723Z,2.17
2023-03-31T19:42:16.907Z,1.25
2023-03-31T19:44:52.011Z,2.65
2023-03-31T19:47:28.438Z,2.38
2023-03-31T19:50:00.862Z,2.63
2023-03-31T19:52:33.315Z,6.40
2023-03-31T19:55:06.019Z,3.05
2023-03-31T19:57:38.079Z,5.05
2023-03-31T20:00:10.921Z,2.72
2023-03-31T20:02:43.207Z,2.10
2023-03-31T20:05:15.573Z,4.30
2023-03-31T20:07:47.642Z,6.80
2023-03-31T20:10:19.899Z,7.32
2023-03-31T20:12:52.230Z,2.95
2023-03-31T20:15:24.239Z,4.82
2023-03-31T20:17:57.131Z,5.72
2023-03-31T20:20:29.306Z,5.68
2023-03-31T20:23:01.425Z,3.83
2023-03-31T20:25:37.817Z,5.95
2023-03-31T20:28:10.016Z,7.85
2023-03-31T20:30:42.048Z,5.60
2023-03-31T20:33:14.057Z,5.88
2023-03-31T20:35:47.239Z,12.23
2023-03-31T20:38:19.319Z,3.55
2023-03-31T20:40:51.531Z,6.40
2023-03-31T20:43:24.009Z,10.40
2023-03-31T20:46:03.171Z,3.00
2023-03-31T20:48:45.961Z,7.85
2023-03-31T20:51:21.338Z,7.88
2023-03-31T20:53:55.020Z,6.03
2023-03-31T20:56:32.770Z,5.47
2023-03-31T20:59:07.309Z,7.70
2023-03-31T21:01:42.882Z,6.30
2023-03-31T21:04:17.234Z,4.65
2023-03-31T21:06:49.556Z,10.95
2023-03-31T21:09:21.866Z,8.43
2023-03-31T21:27:16.235Z,5.28
2023-03-31T21:30:04.729Z,6.72
2023-03-31T21:32:54.237Z,4.60
2023-03-31T21:35:39.354Z,7.93
2023-03-31T21:38:25.118Z,5.80
2023-03-31T21:41:05.167Z,3.45
2023-03-31T21:43:52.127Z,5.35
2023-03-31T21:46:36.847Z,3.97
2023-03-31T21:49:17.469Z,8.52
2023-03-31T21:51:50.645Z,3.28
2023-03-31T21:54:23.450Z,7.15
2023-03-31T21:56:55.756Z,4.63
2023-03-31T21:59:28.425Z,6.87
2023-03-31T22:02:00.600Z,2.63
2023-03-31T22:04:33.861Z,6.32
2023-03-31T22:07:06.109Z,4.07
2023-03-31T22:09:40.843Z,4.13
2023-03-31T22:12:13.145Z,2.60
2023-03-31T22:14:45.202Z,1.60
2023-03-31T22:17:17.624Z,6.45
2023-03-31T22:19:49.823Z,1.88
2023-03-31T22:22:23.150Z,2.70
2023-03-31T22:24:55.256Z,4.53
2023-03-31T22:27:27.584Z,2.17
2023-03-31T22:30:00.542Z,2.90
2023-03-31T22:32:32.616Z,3.58
2023-03-31T22:35:08.295Z,3.58
2023-03-31T22:37:40.422Z,1.92
2023-03-31T22:40:12.610Z,2.33
2023-03-31T22:42:44.959Z,6.65
2023-03-31T22:45:17.393Z,2.67
2023-03-31T22:47:49.646Z,2.33
2023-03-31T22:50:22.238Z,2.45
2023-03-31T22:52:54.478Z,2.15
2023-03-31T22:55:26.695Z,1.63
2023-03-31T22:57:58.781Z,3.38
2023-03-31T23:00:31.209Z,4.00
2023-03-31T23:03:08.208Z,3.65
2023-03-31T23:05:40.259Z,4.03
2023-03-31T23:08:12.499Z,2.25
2023-03-31T23:10:54.790Z,1.75
2023-03-31T23:13:27.869Z,6.07
2023-03-31T23:16:08.601Z,4.63
2023-03-31T23:18:44.530Z,4.13
2023-03-31T23:21:19.689Z,3.83
2023-03-31T23:23:53.931Z,1.20
2023-03-31T23:26:28.021Z,8.20
2023-03-31T23:29:01.224Z,3.00
2023-03-31T23:31:34.127Z,1.42
2023-03-31T23:34:07.347Z,4.68
2023-03-31T23:36:39.574Z,1.95
2023-03-31T23:39:11.725Z,2.85
2023-03-31T23:41:43.828Z,2.90
2023-03-31T23:44:16.699Z,3.13
2023-03-31T23:46:49.604Z,3.08
2023-03-31T23:49:21.700Z,2.95
2023-03-31T23:51:54.013Z,2.05
2023-03-31T23:54:26.092Z,2.35
2023-03-31T23:56:58.621Z,8.35
2023-03-31T23:59:30.736Z,1.08
